Time;durP1;ratioP1;P1;durP2;ratioP2;P2;SDS_P1;SDS_P2;PMS_P1;PMS_P2;Temp;Humidity;BMP_temperature;BMP_pressure;BME280_temperature;BME280_humidity;BME280_pressure;Samples;Min_cycle;Max_cycle;Signal;HPM_P1;HPM_P2
2021/09/29 00:01:18;;;;;;;11.50;6.63;;;;;;;18.04;62.03;100261.97;5051536;28;20021;-47
2021/09/29 00:03:43;;;;;;;9.63;6.30;;;;;;;17.79;62.63;100265.75;5051578;28;20029;-47
2021/09/29 00:06:09;;;;;;;8.82;5.57;;;;;;;17.81;62.35;100276.31;5051322;28;20025;-47
2021/09/29 00:08:34;;;;;;;8.32;4.90;;;;;;;17.72;62.96;100270.47;5051128;28;20150;-48
2021/09/29 00:11:00;;;;;;;10.98;5.90;;;;;;;18.01;62.37;100270.53;5050944;28;20082;-50
2021/09/29 00:13:26;;;;;;;7.00;4.75;;;;;;;18.00;62.02;100267.00;5051280;28;20032;-48
2021/09/29 00:15:54;;;;;;;7.25;4.40;;;;;;;18.07;61.44;100269.59;5051065;28;20060;-48
2021/09/29 00:18:20;;;;;;;7.85;4.38;;;;;;;18.33;60.63;100278.94;5051297;28;20028;-48
2021/09/29 00:20:46;;;;;;;7.43;4.30;;;;;;;17.93;61.83;100271.72;5050994;28;20021;-48
2021/09/29 00:23:11;;;;;;;6.45;4.18;;;;;;;17.91;62.38;100269.25;5051313;28;20029;-49
2021/09/29 00:25:37;;;;;;;5.68;4.40;;;;;;;17.98;61.73;100266.44;5050297;28;20017;-48
2021/09/29 00:28:02;;;;;;;8.65;4.57;;;;;;;17.83;62.12;100258.03;5051284;28;20087;-48
2021/09/29 00:30:31;;;;;;;9.05;4.10;;;;;;;17.91;61.80;100255.78;5051174;28;20107;-49
2021/09/29 00:33:01;;;;;;;6.80;4.55;;;;;;;18.07;61.51;100265.00;5051234;28;20480;-51
2021/09/29 00:35:26;;;;;;;6.95;4.40;;;;;;;18.13;60.97;100269.44;5050896;28;20032;-50
2021/09/29 00:37:52;;;;;;;6.13;3.85;;;;;;;17.95;60.90;100267.75;5050858;28;20025;-48
2021/09/29 00:40:17;;;;;;;6.28;4.40;;;;;;;18.09;61.16;100275.53;5050937;28;20017;-51
2021/09/29 00:42:42;;;;;;;6.05;4.00;;;;;;;18.02;61.52;100267.59;5050893;28;20031;-50
2021/09/29 00:45:08;;;;;;;7.28;4.05;;;;;;;18.05;61.35;100268.97;5050562;28;20028;-50
2021/09/29 00:47:34;;;;;;;6.28;3.78;;;;;;;18.08;61.07;100272.00;5051021;28;20103;-49
2021/09/29 00:50:00;;;;;;;6.07;4.00;;;;;;;17.78;62.09;100269.50;5050790;28;20078;-49
2021/09/29 00:52:26;;;;;;;6.07;3.97;;;;;;;18.07;61.27;100272.28;5050735;28;20350;-47
2021/09/29 00:54:51;;;;;;;7.47;4.10;;;;;;;18.06;60.95;100268.75;5050591;28;20032;-48
2021/09/29 00:57:16;;;;;;;6.82;3.88;;;;;;;17.86;61.18;100271.88;5049229;28;20373;-48
2021/09/29 00:59:42;;;;;;;5.65;4.10;;;;;;;18.07;61.15;100264.19;5050716;28;20143;-47
2021/09/29 01:02:07;;;;;;;5.15;4.00;;;;;;;18.35;60.01;100263.34;5051077;28;20025;-47
2021/09/29 01:04:33;;;;;;;4.40;3.88;;;;;;;18.41;59.80;100259.69;5050396;28;20044;-48
2021/09/29 01:07:07;;;;;;;8.05;3.95;;;;;;;18.28;59.69;100260.81;5032612;28;20024;-48
2021/09/29 01:09:43;;;;;;;4.75;3.60;;;;;;;18.28;59.83;100262.69;5049136;28;20036;-48
2021/09/29 01:12:08;;;;;;;5.97;3.70;;;;;;;18.42;59.58;100258.63;5049377;28;20487;-48
2021/09/29 01:14:40;;;;;;;7.00;4.00;;;;;;;18.43;59.27;100262.13;5050339;28;20052;-48
2021/09/29 01:17:06;;;;;;;6.63;3.55;;;;;;;18.30;59.83;100260.56;5049478;28;20037;-47
2021/09/29 01:19:46;;;;;;;8.35;3.90;;;;;;;18.30;59.61;100265.97;5048960;28;20078;-48
2021/09/29 01:22:39;;;;;;;6.43;3.53;;;;;;;18.32;59.47;100264.66;5050281;28;20033;-48
2021/09/29 01:25:06;;;;;;;6.35;3.47;;;;;;;18.41;59.51;100272.34;5044894;28;20186;-47
2021/09/29 01:27:32;;;;;;;5.72;3.65;;;;;;;18.30;59.69;100274.84;5050462;28;20044;-48
2021/09/29 01:29:57;;;;;;;8.35;3.60;;;;;;;18.38;59.92;100280.91;5050400;28;20032;-48
2021/09/29 01:32:23;;;;;;;7.03;3.55;;;;;;;18.53;58.86;100283.88;5048964;28;20035;-48
2021/09/29 01:34:49;;;;;;;6.38;3.80;;;;;;;18.42;59.01;100282.88;5048952;28;20035;-47
2021/09/29 01:37:14;;;;;;;5.13;3.53;;;;;;;18.53;58.48;100284.69;5048917;28;20449;-49
2021/09/29 01:39:40;;;;;;;7.47;3.78;;;;;;;18.70;58.25;100283.91;5049114;28;20154;-46
2021/09/29 01:42:05;;;;;;;7.55;3.88;;;;;;;18.85;58.09;100284.19;5032200;28;20017;-48
2021/09/29 01:44:31;;;;;;;7.38;3.95;;;;;;;18.84;58.72;100296.03;5050427;28;20036;-47
2021/09/29 01:46:58;;;;;;;6.30;4.00;;;;;;;18.67;59.23;100287.06;5049910;28;20075;-49
2021/09/29 01:49:27;;;;;;;5.95;3.85;;;;;;;18.72;58.96;100279.91;5050097;28;20025;-47
2021/09/29 01:51:53;;;;;;;5.30;4.03;;;;;;;18.89;59.11;100289.91;5050355;28;20109;-47
2021/09/29 01:54:20;;;;;;;5.93;4.10;;;;;;;18.95;59.49;100284.34;5049889;28;20033;-50
2021/09/29 01:56:46;;;;;;;5.10;4.20;;;;;;;19.02;59.22;100281.50;5050243;28;20104;-48
2021/09/29 01:59:12;;;;;;;6.25;3.80;;;;;;;19.07;58.73;100286.94;5052603;28;20203;-50
2021/09/29 02:01:38;;;;;;;9.30;4.50;;;;;;;19.08;59.04;100285.88;5053797;28;20495;-49
2021/09/29 02:04:05;;;;;;;7.47;4.80;;;;;;;19.11;58.10;100289.97;5053841;28;20032;-48
2021/09/29 02:06:30;;;;;;;6.35;4.40;;;;;;;19.04;57.74;100283.91;5053940;28;20028;-47
2021/09/29 02:08:56;;;;;;;6.95;4.60;;;;;;;19.09;57.93;100279.41;5053749;28;20334;-47
2021/09/29 02:11:21;;;;;;;8.40;4.45;;;;;;;18.94;57.39;100284.56;5052427;28;20020;-48
2021/09/29 02:13:47;;;;;;;6.55;4.55;;;;;;;19.03;57.82;100279.59;5053729;28;20098;-48
2021/09/29 02:16:12;;;;;;;6.35;4.63;;;;;;;19.21;57.44;100286.59;5053304;28;20106;-48
2021/09/29 02:18:38;;;;;;;7.47;4.57;;;;;;;19.32;56.81;100285.69;5053602;28;20033;-47
2021/09/29 02:21:03;;;;;;;6.25;4.68;;;;;;;19.19;56.64;100288.72;5053620;28;20037;-47
2021/09/29 02:23:29;;;;;;;8.80;4.75;;;;;;;19.13;57.20;100290.53;5053582;28;20500;-47
2021/09/29 02:25:54;;;;;;;6.65;4.72;;;;;;;19.08;57.25;100293.97;5051888;28;20017;-48
2021/09/29 02:28:20;;;;;;;8.98;5.05;;;;;;;18.88;58.05;100285.56;5053047;28;20023;-48
2021/09/29 02:30:45;;;;;;;9.88;4.70;;;;;;;18.98;57.80;100290.31;5053149;28;20025;-49
2021/09/29 02:33:11;;;;;;;7.97;4.97;;;;;;;18.84;58.10;100298.72;5052703;28;20474;-49
2021/09/29 02:35:36;;;;;;;7.00;4.82;;;;;;;19.01;58.30;100292.50;5053270;28;20032;-51
2021/09/29 02:38:02;;;;;;;9.50;5.18;;;;;;;18.87;57.99;100294.72;5052909;28;20500;-51
2021/09/29 02:40:27;;;;;;;5.82;4.90;;;;;;;18.87;58.08;100298.25;5052930;28;20032;-49
2021/09/29 02:42:53;;;;;;;7.20;4.82;;;;;;;18.16;59.72;100298.59;5053178;28;20492;-51
2021/09/29 02:45:18;;;;;;;7.40;5.30;;;;;;;18.20;59.74;100306.16;5053062;28;20017;-48
2021/09/29 02:47:44;;;;;;;7.57;5.60;;;;;;;18.24;60.15;100310.00;5052833;28;20036;-48
2021/09/29 02:50:09;;;;;;;8.50;6.05;;;;;;;17.62;62.16;100306.06;5052723;28;20037;-49
2021/09/29 02:52:35;;;;;;;10.55;6.90;;;;;;;17.29;63.26;100312.88;5052983;28;20062;-49
2021/09/29 02:55:01;;;;;;;9.77;7.18;;;;;;;17.45;63.32;100319.41;5052432;28;20017;-48
2021/09/29 02:57:26;;;;;;;10.07;8.43;;;;;;;17.36;63.39;100312.72;5052018;28;20100;-48
2021/09/29 02:59:53;;;;;;;48.45;30.73;;;;;;;17.39;63.41;100313.09;5052421;28;20094;-49
2021/09/29 03:02:18;;;;;;;10.95;8.60;;;;;;;17.44;63.33;100315.09;5052645;28;20025;-51
2021/09/29 03:04:44;;;;;;;10.93;8.20;;;;;;;17.55;63.19;100316.97;5052420;28;20032;-49
2021/09/29 03:07:09;;;;;;;11.82;8.07;;;;;;;17.06;64.29;100315.53;5052903;28;20134;-52
2021/09/29 03:09:35;;;;;;;10.95;8.80;;;;;;;17.33;63.63;100311.34;5052133;28;20032;-49
2021/09/29 03:12:00;;;;;;;11.88;9.07;;;;;;;16.80;65.36;100310.31;5052643;28;20086;-48
2021/09/29 03:14:26;;;;;;;9.93;7.70;;;;;;;16.97;65.91;100307.00;5052292;28;20457;-50
2021/09/29 03:16:51;;;;;;;11.38;7.45;;;;;;;17.22;64.89;100320.22;5052270;28;20074;-50
2021/09/29 03:19:17;;;;;;;10.05;7.15;;;;;;;17.07;65.13;100320.66;5052621;28;20090;-50
2021/09/29 03:21:42;;;;;;;9.60;7.80;;;;;;;16.61;67.04;100316.81;5052617;28;20083;-49
2021/09/29 03:24:08;;;;;;;11.25;8.02;;;;;;;16.79;66.36;100313.22;5052319;28;20464;-49
2021/09/29 03:26:33;;;;;;;9.63;7.90;;;;;;;16.73;66.99;100314.16;5051953;28;20021;-49
2021/09/29 03:28:58;;;;;;;11.05;8.25;;;;;;;16.53;67.36;100317.16;5051214;28;20181;-48
2021/09/29 03:31:24;;;;;;;10.38;7.68;;;;;;;16.35;67.61;100318.00;5051005;28;20029;-49
2021/09/29 03:33:49;;;;;;;11.63;8.90;;;;;;;16.36;68.17;100320.47;5051613;28;20445;-49
2021/09/29 03:36:15;;;;;;;10.88;8.75;;;;;;;16.55;66.92;100318.56;5051760;28;20118;-49
2021/09/29 03:38:40;;;;;;;11.32;8.00;;;;;;;16.41;67.37;100317.94;5052013;28;20142;-48
2021/09/29 03:41:06;;;;;;;11.90;8.70;;;;;;;16.45;68.11;100312.94;5051722;28;20567;-48
2021/09/29 03:43:31;;;;;;;10.52;8.43;;;;;;;16.29;68.47;100324.28;5052050;28;20021;-47
2021/09/29 03:45:57;;;;;;;12.65;8.93;;;;;;;16.46;67.39;100308.38;5050536;28;20453;-47
2021/09/29 03:48:22;;;;;;;13.85;9.20;;;;;;;16.84;66.15;100312.59;5049792;28;20013;-48
2021/09/29 03:50:48;;;;;;;12.10;8.75;;;;;;;16.93;65.46;100313.88;5049731;28;20020;-48
2021/09/29 03:53:13;;;;;;;11.30;9.00;;;;;;;17.07;65.92;100309.91;5049759;28;20033;-47
2021/09/29 03:55:38;;;;;;;10.70;8.48;;;;;;;17.30;64.86;100310.97;5049978;28;20083;-48
2021/09/29 03:58:04;;;;;;;12.13;9.10;;;;;;;17.31;64.19;100312.63;5050467;28;20036;-49
2021/09/29 04:00:29;;;;;;;10.60;8.13;;;;;;;17.16;65.30;100324.66;5050878;28;20082;-50
2021/09/29 04:02:55;;;;;;;13.45;8.55;;;;;;;17.56;64.00;100331.22;5051190;28;20024;-47
2021/09/29 04:05:21;;;;;;;10.43;8.00;;;;;;;17.62;62.93;100329.47;5050598;28;20025;-48
2021/09/29 04:07:46;;;;;;;10.98;9.13;;;;;;;17.81;61.97;100319.38;5050865;28;20025;-47
2021/09/29 04:10:12;;;;;;;10.70;8.95;;;;;;;17.76;62.41;100317.38;5050331;28;20029;-48
2021/09/29 04:12:39;;;;;;;16.08;9.07;;;;;;;17.88;62.49;100320.91;5050441;28;20027;-49
2021/09/29 04:15:06;;;;;;;13.40;9.35;;;;;;;18.01;62.79;100324.38;5050275;28;20072;-50
2021/09/29 04:17:31;;;;;;;13.45;10.07;;;;;;;18.16;62.13;100330.06;5050766;28;20021;-47
2021/09/29 04:19:56;;;;;;;16.98;12.30;;;;;;;18.28;61.37;100325.47;5049999;28;20484;-48
2021/09/29 04:22:22;;;;;;;17.67;14.07;;;;;;;18.12;61.28;100324.34;5050391;28;20086;-48
2021/09/29 04:24:48;;;;;;;49.40;29.20;;;;;;;18.11;61.43;100319.22;5050294;28;20036;-47
2021/09/29 04:27:14;;;;;;;21.67;15.02;;;;;;;18.11;61.63;100333.47;5050375;28;20497;-49
2021/09/29 04:29:39;;;;;;;12.73;9.57;;;;;;;18.19;60.60;100329.59;5050611;28;20017;-49
2021/09/29 04:32:05;;;;;;;12.10;8.77;;;;;;;18.29;62.96;100332.47;5041667;28;20361;-48
2021/09/29 04:34:31;;;;;;;13.80;10.32;;;;;;;18.63;61.05;100343.34;5048849;28;20025;-48
2021/09/29 04:36:56;;;;;;;14.48;10.77;;;;;;;18.78;60.29;100340.09;5048761;28;20397;-48
2021/09/29 04:39:22;;;;;;;14.75;10.65;;;;;;;18.74;60.50;100344.34;5048540;28;20028;-52
2021/09/29 04:41:47;;;;;;;17.45;10.52;;;;;;;18.71;60.60;100344.81;5050274;28;20025;-52
2021/09/29 04:44:13;;;;;;;14.52;10.50;;;;;;;18.69;60.69;100338.88;5049667;28;20048;-51
2021/09/29 04:46:38;;;;;;;13.23;10.05;;;;;;;18.70;60.72;100341.31;5047688;28;20021;-49
2021/09/29 04:49:04;;;;;;;13.57;10.45;;;;;;;18.48;60.02;100346.56;5049559;28;20029;-49
2021/09/29 04:51:29;;;;;;;12.73;8.82;;;;;;;18.36;59.74;100341.25;5048675;28;20104;-48
2021/09/29 04:53:55;;;;;;;14.93;10.85;;;;;;;18.26;60.72;100343.75;5049258;28;20678;-50
2021/09/29 04:56:20;;;;;;;12.32;10.02;;;;;;;18.20;61.58;100347.41;5048927;28;20473;-49
2021/09/29 04:58:46;;;;;;;14.52;10.40;;;;;;;18.26;61.74;100341.06;5049438;28;20029;-49
2021/09/29 05:01:13;;;;;;;14.75;11.05;;;;;;;18.21;61.53;100337.44;5049356;28;20035;-47
2021/09/29 05:03:38;;;;;;;17.08;12.25;;;;;;;18.29;60.64;100345.94;5048260;28;20425;-48
2021/09/29 05:06:04;;;;;;;16.05;12.20;;;;;;;18.32;61.02;100352.75;5049653;28;20033;-47
2021/09/29 05:08:30;;;;;;;18.98;13.20;;;;;;;18.40;60.72;100349.66;5050339;28;20102;-47
2021/09/29 05:11:18;;;;;;;18.08;12.77;;;;;;;18.63;59.53;100347.94;5049092;28;20097;-47
2021/09/29 05:13:43;;;;;;;24.58;17.00;;;;;;;18.52;59.47;100344.22;5050227;28;20021;-48
2021/09/29 05:16:09;;;;;;;23.02;16.23;;;;;;;18.38;60.77;100345.59;5049662;28;20147;-51
2021/09/29 05:18:34;;;;;;;24.90;17.80;;;;;;;18.35;60.55;100355.78;5050298;28;20029;-48
2021/09/29 05:20:59;;;;;;;26.83;19.10;;;;;;;18.47;59.81;100365.69;5050064;28;20401;-48
2021/09/29 05:23:25;;;;;;;25.83;18.70;;;;;;;18.47;59.79;100358.44;5050009;28;20086;-49
2021/09/29 05:25:51;;;;;;;24.65;17.63;;;;;;;18.55;59.51;100358.03;5049963;28;20481;-49
2021/09/29 05:28:18;;;;;;;25.48;17.60;;;;;;;18.66;58.96;100355.53;5049955;28;20055;-47
2021/09/29 05:30:44;;;;;;;27.77;17.40;;;;;;;18.53;60.17;100359.34;5050306;28;20095;-47
2021/09/29 05:33:09;;;;;;;21.80;15.20;;;;;;;18.59;60.08;100369.16;5054133;28;20480;-47
2021/09/29 05:35:35;;;;;;;19.38;13.73;;;;;;;18.69;58.92;100369.31;5054339;28;20044;-49
2021/09/29 05:38:00;;;;;;;19.08;13.60;;;;;;;18.74;58.50;100369.44;5053963;28;20382;-47
2021/09/29 05:40:26;;;;;;;19.90;12.88;;;;;;;18.80;58.42;100367.66;5053369;28;20033;-48
2021/09/29 05:42:51;;;;;;;20.02;13.40;;;;;;;18.62;59.44;100368.69;5054092;28;20039;-48
2021/09/29 05:45:17;;;;;;;18.67;12.50;;;;;;;18.68;59.22;100373.09;5053594;28;20028;-48
2021/09/29 05:47:43;;;;;;;19.23;12.68;;;;;;;18.82;58.88;100368.25;5053687;28;20070;-50
2021/09/29 05:50:09;;;;;;;16.95;12.20;;;;;;;18.89;58.72;100379.69;5053845;28;20035;-50
2021/09/29 05:52:34;;;;;;;16.63;12.70;;;;;;;18.91;57.90;100374.88;5053430;28;20032;-51
2021/09/29 05:55:00;;;;;;;16.02;11.77;;;;;;;19.03;57.27;100382.09;5053564;28;20036;-50
2021/09/29 05:57:26;;;;;;;19.63;12.40;;;;;;;19.16;56.72;100378.25;5053674;28;20028;-49
2021/09/29 05:59:51;;;;;;;16.58;12.95;;;;;;;19.22;56.52;100385.38;5053717;28;20017;-48
2021/09/29 06:02:17;;;;;;;19.92;13.32;;;;;;;18.72;58.31;100389.63;5053575;28;20025;-46
2021/09/29 06:04:43;;;;;;;18.60;12.82;;;;;;;18.86;58.00;100390.16;5053606;28;20435;-47
2021/09/29 06:07:11;;;;;;;17.95;13.95;;;;;;;18.72;58.39;100395.81;5053549;28;20036;-47
2021/09/29 06:09:39;;;;;;;20.50;13.93;;;;;;;18.98;57.06;100393.59;5053079;28;20539;-47
2021/09/29 06:12:05;;;;;;;17.98;13.13;;;;;;;19.17;56.30;100396.06;5053390;28;20025;-48
2021/09/29 06:14:31;;;;;;;17.67;14.60;;;;;;;19.07;56.71;100396.72;5053352;28;20041;-48
2021/09/29 06:17:10;;;;;;;20.77;14.60;;;;;;;19.31;55.28;100408.19;5053504;28;20091;-47
2021/09/29 06:19:36;;;;;;;25.98;15.65;;;;;;;19.44;56.09;100404.31;5053211;28;20047;-48
2021/09/29 06:22:01;;;;;;;26.10;19.60;;;;;;;19.38;54.19;100398.06;5052282;28;20476;-47
2021/09/29 06:24:27;;;;;;;25.17;19.67;;;;;;;19.42;54.26;100409.16;5052803;28;20112;-47
2021/09/29 06:26:54;;;;;;;26.50;17.58;;;;;;;19.17;54.94;100375.28;5053343;28;20083;-47
2021/09/29 06:29:19;;;;;;;19.98;15.73;;;;;;;19.38;54.68;100410.72;5053350;28;20451;-47
2021/09/29 06:31:45;;;;;;;28.95;21.08;;;;;;;19.31;55.24;100408.19;5053039;28;20492;-47
2021/09/29 06:34:10;;;;;;;22.05;15.27;;;;;;;19.37;55.77;100409.91;5053244;28;20447;-47
2021/09/29 06:36:35;;;;;;;17.52;12.43;;;;;;;19.27;55.47;100415.13;5053233;28;20025;-46
2021/09/29 06:39:01;;;;;;;17.65;12.73;;;;;;;19.06;56.19;100416.69;5052675;28;20032;-48
2021/09/29 06:41:26;;;;;;;17.63;12.18;;;;;;;19.28;55.89;100419.47;5053040;28;20472;-47
2021/09/29 06:43:52;;;;;;;15.95;12.73;;;;;;;19.34;56.09;100418.47;5051964;28;20028;-47
2021/09/29 06:46:17;;;;;;;17.88;12.05;;;;;;;19.43;55.59;100416.19;5052784;28;20066;-47
2021/09/29 06:48:43;;;;;;;22.63;12.05;;;;;;;19.46;55.61;100413.81;5052667;28;20021;-47
2021/09/29 06:51:08;;;;;;;18.90;11.85;;;;;;;19.54;55.22;100418.81;5052578;28;20035;-46
2021/09/29 06:53:34;;;;;;;15.68;10.98;;;;;;;19.63;54.50;100421.91;5052259;28;20392;-46
2021/09/29 06:56:05;;;;;;;16.75;10.80;;;;;;;19.32;55.19;100418.75;5052353;28;20021;-47
2021/09/29 06:58:30;;;;;;;18.20;11.80;;;;;;;19.18;56.04;100425.50;5052726;28;20021;-47
2021/09/29 07:00:56;;;;;;;18.42;12.40;;;;;;;19.12;57.42;100426.47;5052736;28;20028;-48
2021/09/29 07:03:22;;;;;;;17.23;12.38;;;;;;;19.21;57.25;100429.59;5052697;28;20017;-46
2021/09/29 07:05:47;;;;;;;16.27;11.38;;;;;;;19.30;56.71;100434.31;5051693;28;20021;-48
2021/09/29 07:08:13;;;;;;;19.42;12.73;;;;;;;19.35;56.70;100441.72;5051812;28;20029;-48
2021/09/29 07:10:38;;;;;;;20.00;12.48;;;;;;;19.30;57.20;100437.03;5052352;28;20032;-47
2021/09/29 07:13:04;;;;;;;16.15;11.65;;;;;;;19.29;57.19;100431.91;5051392;28;20063;-47
2021/09/29 07:15:29;;;;;;;18.63;12.10;;;;;;;18.97;57.46;100435.13;5052081;28;20061;-45
2021/09/29 07:17:59;;;;;;;17.38;12.10;;;;;;;18.89;57.75;100444.41;5051981;28;20028;-47
2021/09/29 07:20:24;;;;;;;20.33;12.68;;;;;;;18.93;58.36;100444.75;5052045;28;20025;-47
2021/09/29 07:22:50;;;;;;;18.95;12.20;;;;;;;18.65;59.14;100437.44;5052320;28;20040;-47
2021/09/29 07:25:16;;;;;;;18.55;12.23;;;;;;;18.62;59.43;100441.47;5052429;28;20047;-48
2021/09/29 07:27:41;;;;;;;22.58;12.50;;;;;;;18.60;59.60;100445.44;5050863;28;20113;-49
2021/09/29 07:30:07;;;;;;;21.25;12.40;;;;;;;18.74;59.59;100453.00;5052188;28;20039;-48
2021/09/29 07:32:33;;;;;;;17.27;11.65;;;;;;;18.81;59.82;100449.38;5052022;28;20025;-47
2021/09/29 07:34:59;;;;;;;16.90;11.02;;;;;;;18.80;59.24;100445.03;5051589;28;20025;-46
2021/09/29 07:37:24;;;;;;;20.33;11.23;;;;;;;19.12;58.83;100454.28;5051989;28;20525;-47
2021/09/29 07:39:50;;;;;;;17.23;10.68;;;;;;;19.16;58.20;100446.50;5051737;28;20132;-46
2021/09/29 07:42:16;;;;;;;17.77;11.35;;;;;;;18.79;59.30;100457.69;5051865;28;20036;-49
2021/09/29 07:44:41;;;;;;;18.85;10.60;;;;;;;18.80;59.01;100445.84;5051369;28;20029;-46
2021/09/29 07:47:07;;;;;;;14.77;9.90;;;;;;;18.54;58.58;100458.81;5051441;28;20040;-46
2021/09/29 07:49:32;;;;;;;17.73;8.90;;;;;;;18.74;57.25;100460.28;5051663;28;20024;-48
2021/09/29 07:51:58;;;;;;;12.68;8.38;;;;;;;18.41;58.32;100455.56;5051701;28;20036;-47
2021/09/29 07:54:26;;;;;;;13.35;8.55;;;;;;;18.26;58.79;100456.88;5051372;28;20028;-47
2021/09/29 07:56:52;;;;;;;10.45;7.35;;;;;;;18.41;58.23;100463.63;5051064;28;20040;-47
2021/09/29 07:59:17;;;;;;;9.95;7.43;;;;;;;17.52;61.23;100462.72;5051460;28;20024;-47
2021/09/29 08:01:42;;;;;;;10.25;7.93;;;;;;;18.10;59.25;100453.03;5051306;28;20052;-47
2021/09/29 08:04:08;;;;;;;13.63;8.13;;;;;;;18.30;58.92;100459.94;5049942;28;20033;-47
2021/09/29 08:06:35;;;;;;;11.07;8.10;;;;;;;18.91;57.27;100460.38;5051369;28;20016;-47
2021/09/29 08:09:00;;;;;;;11.68;7.78;;;;;;;18.82;57.92;100453.72;5051319;28;20535;-46
2021/09/29 08:11:26;;;;;;;12.73;8.00;;;;;;;19.13;57.03;100463.16;5051118;28;20070;-46
2021/09/29 08:13:51;;;;;;;11.60;8.52;;;;;;;19.19;56.43;100456.81;5051086;28;20024;-46
2021/09/29 08:16:17;;;;;;;11.25;7.57;;;;;;;18.83;58.12;100461.56;5050973;28;20052;-47
2021/09/29 08:18:42;;;;;;;12.90;6.63;;;;;;;17.98;59.33;100469.19;5051154;28;20449;-46
2021/09/29 08:21:13;;;;;;;8.50;6.35;;;;;;;17.37;60.85;100462.34;5050894;28;20354;-47
2021/09/29 08:23:41;;;;;;;12.93;7.72;;;;;;;16.96;62.51;100474.72;5051451;28;20056;-47
2021/09/29 08:36:52;;;;;;;12.05;8.20;;;;;;;17.89;60.54;100467.91;5050617;28;20029;-47
2021/09/29 08:49:26;;;;;;;10.60;7.22;;;;;;;18.57;58.08;100479.06;5049460;28;20124;-48
2021/09/29 09:16:30;;;;;;;9.98;6.47;;;;;;;18.22;58.98;100485.34;5049701;28;20048;-47
2021/09/29 09:18:57;;;;;;;10.05;6.50;;;;;;;18.26;58.58;100488.38;5049681;28;20052;-47
2021/09/29 09:21:23;;;;;;;9.07;6.35;;;;;;;17.90;59.46;100485.72;5049778;28;20021;-48
2021/09/29 09:23:48;;;;;;;9.18;6.93;;;;;;;18.09;58.89;100485.59;5048417;28;20029;-46
2021/09/29 09:26:19;;;;;;;9.38;6.47;;;;;;;18.51;58.02;100488.13;5049886;28;20028;-47
2021/09/29 09:28:45;;;;;;;8.93;6.30;;;;;;;18.65;57.79;100494.06;5049769;28;20032;-47
2021/09/29 09:31:12;;;;;;;8.05;7.00;;;;;;;18.41;57.88;100490.59;5049801;28;20029;-47
2021/09/29 09:33:49;;;;;;;9.00;6.72;;;;;;;18.06;59.32;100494.94;5050048;28;20100;-48
2021/09/29 09:36:35;;;;;;;11.90;6.22;;;;;;;17.62;60.09;100496.31;5049988;28;20079;-47
2021/09/29 09:39:07;;;;;;;8.50;6.53;;;;;;;17.81;59.32;100495.16;5048670;28;20044;-48
2021/09/29 09:41:33;;;;;;;9.30;6.28;;;;;;;18.60;57.76;100499.34;5050086;28;20100;-47
2021/09/29 09:43:59;;;;;;;7.78;6.63;;;;;;;18.84;56.67;100500.94;5049681;28;20477;-47
2021/09/29 09:46:25;;;;;;;8.25;6.70;;;;;;;18.82;56.67;100502.25;5049859;28;20146;-47
2021/09/29 09:49:04;;;;;;;7.40;6.30;;;;;;;18.94;56.33;100492.22;5049493;28;20029;-47
2021/09/29 09:51:32;;;;;;;8.65;6.43;;;;;;;19.00;56.55;100501.22;5050045;28;20024;-48
2021/09/29 09:53:57;;;;;;;9.32;6.32;;;;;;;19.40;55.74;100494.94;5049565;28;20124;-47
2021/09/29 09:56:31;;;;;;;8.15;6.63;;;;;;;19.47;54.80;100499.13;5049510;28;20112;-46
2021/09/29 09:58:57;;;;;;;11.13;6.38;;;;;;;18.88;55.90;100495.88;5049676;28;20560;-47
2021/09/29 10:01:24;;;;;;;11.13;6.63;;;;;;;18.18;57.84;100500.34;5049143;28;20086;-47
2021/09/29 10:03:50;;;;;;;10.50;6.72;;;;;;;18.09;58.13;100491.00;5049754;28;20401;-48
2021/09/29 10:06:16;;;;;;;8.77;6.38;;;;;;;18.39;57.51;100493.53;5049425;28;20018;-47
2021/09/29 10:08:47;;;;;;;10.10;6.47;;;;;;;18.52;56.48;100489.75;5049469;28;20112;-47
2021/09/29 10:11:20;;;;;;;10.80;5.88;;;;;;;18.40;56.86;100491.66;5049734;28;20170;-48
2021/09/29 10:27:51;;;;;;;7.80;5.10;;;;;;;19.51;53.22;100488.66;5053050;28;20032;-49
2021/09/29 10:30:23;;;;;;;8.85;5.32;;;;;;;18.76;54.26;100491.31;5052847;28;20028;-48
2021/09/29 10:32:51;;;;;;;10.23;5.43;;;;;;;18.45;55.23;100495.28;5053290;28;20043;-47
2021/09/29 10:43:04;;;;;;;13.73;6.32;;;;;;;19.41;53.25;100483.91;5053064;28;20119;-49
2021/09/29 10:46:01;;;;;;;7.45;5.72;;;;;;;20.06;51.55;100477.09;5052115;28;20454;-48
2021/09/29 11:05:54;;;;;;;9.35;5.20;;;;;;;19.08;53.58;100455.81;5051749;28;20128;-47
2021/09/29 11:30:06;;;;;;;9.20;6.53;;;;;;;20.57;49.58;100441.81;5051073;28;20025;-47
2021/09/29 11:32:39;;;;;;;10.05;6.07;;;;;;;20.53;49.86;100416.38;5051136;28;20460;-47
2021/09/29 11:35:21;;;;;;;10.95;5.75;;;;;;;19.86;51.56;100439.84;5049783;28;20430;-47
2021/09/29 12:08:31;;;;;;;8.20;5.72;;;;;;;19.29;51.97;100377.94;5050454;28;20067;-50
2021/09/29 12:11:09;;;;;;;8.15;5.63;;;;;;;19.97;51.14;100446.22;5050433;28;20032;-48
2021/09/29 12:13:39;;;;;;;8.27;5.97;;;;;;;19.68;51.95;100437.34;5050425;28;20090;-49
2021/09/29 12:16:04;;;;;;;9.98;5.30;;;;;;;19.26;52.50;100435.88;5050534;28;20109;-48
2021/09/29 12:18:30;;;;;;;6.35;5.57;;;;;;;19.27;53.05;100428.63;5050151;28;20413;-50
2021/09/29 12:20:56;;;;;;;10.90;6.43;;;;;;;19.76;51.80;100436.97;5050495;28;20025;-47
2021/09/29 12:23:23;;;;;;;8.85;5.68;;;;;;;20.04;51.45;100429.81;5050107;28;20465;-47
2021/09/29 12:25:59;;;;;;;8.38;6.15;;;;;;;19.26;53.40;100432.38;5048905;28;20401;-48
2021/09/29 12:36:13;;;;;;;8.95;6.25;;;;;;;19.63;52.50;100427.31;5050296;28;20386;-47
2021/09/29 12:38:39;;;;;;;10.77;6.43;;;;;;;20.40;50.36;100427.56;5049741;28;20086;-48
2021/09/29 12:41:05;;;;;;;11.77;7.10;;;;;;;20.43;50.15;100429.78;5049197;28;20029;-48
2021/09/29 12:43:31;;;;;;;10.95;7.03;;;;;;;20.49;50.82;100426.06;5049327;28;20032;-47
2021/09/29 12:45:56;;;;;;;8.63;6.95;;;;;;;20.53;50.16;100431.78;5050018;28;20432;-47
2021/09/29 12:48:28;;;;;;;12.18;6.70;;;;;;;19.92;51.21;100417.22;5049542;28;20087;-48
2021/09/29 12:50:59;;;;;;;9.35;7.20;;;;;;;20.19;50.35;100430.00;5048188;28;20108;-47
2021/09/29 12:56:15;;;;;;;11.70;6.22;;;;;;;20.51;49.87;100429.31;5049445;28;20422;-48
2021/09/29 12:58:40;;;;;;;9.30;6.70;;;;;;;20.40;50.51;100435.66;5049350;28;20496;-47
2021/09/29 13:01:05;;;;;;;10.55;6.50;;;;;;;20.20;51.14;100438.91;5049495;28;20033;-47
2021/09/29 13:03:31;;;;;;;7.70;6.10;;;;;;;20.23;50.56;100424.91;5048213;28;20469;-47
2021/09/29 13:05:58;;;;;;;7.07;5.90;;;;;;;20.41;49.97;100438.13;5049362;28;20404;-47
2021/09/29 13:08:23;;;;;;;10.20;5.82;;;;;;;20.17;51.25;100429.44;5049499;28;20036;-48
2021/09/29 13:10:49;;;;;;;7.03;5.82;;;;;;;20.67;49.65;100431.13;5049457;28;20044;-49
2021/09/29 13:13:15;;;;;;;12.02;6.32;;;;;;;20.94;48.85;100424.13;5049167;28;20037;-48
2021/09/29 13:15:43;;;;;;;7.30;5.90;;;;;;;21.46;47.20;100427.03;5049132;28;20037;-46
2021/09/29 13:18:11;;;;;;;10.57;6.15;;;;;;;21.41;47.11;100420.75;5049120;28;20108;-47
2021/09/29 13:20:38;;;;;;;7.43;5.50;;;;;;;21.59;47.48;100424.94;5049326;28;20129;-49
2021/09/29 13:23:15;;;;;;;11.07;5.50;;;;;;;21.59;47.33;100427.66;5049115;28;20451;-47
2021/09/29 13:36:39;;;;;;;9.65;5.60;;;;;;;21.19;47.39;100420.81;5049143;28;20028;-49
2021/09/29 13:39:10;;;;;;;10.57;6.25;;;;;;;21.24;47.24;100429.00;5049326;28;20071;-47
2021/09/29 13:41:35;;;;;;;11.25;6.57;;;;;;;20.90;48.32;100421.09;5049140;28;20025;-47
2021/09/29 13:44:01;;;;;;;8.77;6.18;;;;;;;21.14;47.07;100416.19;5049136;28;20453;-47
2021/09/29 13:46:26;;;;;;;8.75;5.75;;;;;;;21.49;46.73;100412.16;5048958;28;20029;-49
2021/09/29 13:48:53;;;;;;;8.55;6.03;;;;;;;21.66;46.02;100412.81;5048898;28;20396;-48
2021/09/29 13:51:19;;;;;;;11.98;5.78;;;;;;;21.80;46.08;100405.06;5048966;28;20037;-48
2021/09/29 13:53:44;;;;;;;9.32;6.03;;;;;;;21.21;47.21;100405.97;5052244;28;20033;-48
2021/09/29 13:56:12;;;;;;;10.48;5.93;;;;;;;20.78;48.58;100409.63;5052718;28;20036;-48